Pagrindinis puslapis
METAR-TAF:

METAR-TAF

Oro uostai :

Ponapė, Mikronezija

platuma: 06-59N, ilguma: 158-12E, Aukštis: 2 m

Dabartinis oras

Ataskaita buvo paskelbta 11 minutes, ne 04:50 UTC
Vėjas 10 kt iš Vakarų
Temperatūra 28°C
Drėgmė 84%
Slėgis 1008 hPa
Matomumas: 24.1 km
Su prošvaistėmis ne aukštis 1800 ft, aukštai iškilę kamuoliniai debesys.
Apsiniaukę ne aukštis 30000 ft

METAR: PTPN 180450Z 27010KT 15SM BKN018TCU OVC300 28/25 A2977 RMK TCU N-SE LAST

Laikas: 16:01 (05:01 UTC)

Prognozė

Ataskaita buvo paskelbta 5 valandos ir 17 minutes, ne 23:44 UTC
Prognozė galioja nuo 18 metu 00 UTC su 18 metu 24 UTC
Vėjas 8 kt iš Vakarų/Pietvakarių
Matomumas: 10 km
Išsisklaidę debesys ne aukštis 1600 ft
Išsisklaidę debesys ne aukštis 4000 ft
Su prošvaistėmis ne aukštis 12000 ft
Liūtis kaimynystėje
Laikinai
nuo 18 metu 00 UTC su 18 metu 04 UTC
Su prošvaistėmis ne aukštis 1600 ft
Apsiniaukę ne aukštis 4000 ft
lietus

TAF: PTPN 172344Z 1800/1824 25008KT P6SM VCSH SCT016 SCT040 BKN120 TEMPO 1800/1804 -SHRA BKN016 OVC040

Orai ataskaitas ir orų prognozės (METAR, TAF).

turimą stotys yra geltonos ir raudonos taškus žemėlapyje.

Perkelti pele per norėdami pamatyti stoties vardą.

Tada spustelėkite, norėdami matyti oro stebėjimo ir prognozės.

Norėdami pakeisti žemėlapį: spustelėkite ant žalios mygtukų su juodo kryžiaus žemyn,; žalią mygtuką su brūkšneliu, jei norite nutolinti; arba žalių rodyklių gretimoms žemėlapius.


METAR-TAF: